CEB793 RPLL-RPME
Flight info
| Callsign | CEB793 |
|---|---|
| Flight time | N/A |
| Altitude | 37000 |
| Route | IPATA2V IPATA B462 TAC W9 BANWA DCT ROLEX TACL2B |
| Aircraft | A21N/M-SDE3FGHIRWY/LB1 |
Departure
| Time | 2026-05-05 04:37 |
|---|---|
| Airport | Ninoy Aquino International Airport (RPLL) |
Arrival
| Time | N/A |
|---|---|
| Airport | Bancasi Airport (RPME) |
| Time | Latitude | Longitude | Altitude | Speed | Heading |
|---|---|---|---|---|---|
| 2026-05-05 04:22 | 14.52189 | 121.00996 | 82 ft | 0 kts | 46° |
| 2026-05-05 04:26 | 14.52181 | 121.00987 | 82 ft | 2 kts | 46° |
| 2026-05-05 04:27 | 14.52174 | 121.00980 | 82 ft | 2 kts | 46° |
| 2026-05-05 04:27 | 14.52160 | 121.00965 | 82 ft | 2 kts | 46° |
| 2026-05-05 04:27 | 14.52150 | 121.00954 | 82 ft | 2 kts | 46° |
| 2026-05-05 04:27 | 14.52143 | 121.00947 | 82 ft | 2 kts | 46° |
| 2026-05-05 04:28 | 14.52131 | 121.00938 | 82 ft | 2 kts | 23° |
| 2026-05-05 04:28 | 14.52117 | 121.00934 | 82 ft | 2 kts | 6° |
| 2026-05-05 04:28 | 14.52102 | 121.00934 | 82 ft | 2 kts | 348° |
| 2026-05-05 04:28 | 14.52088 | 121.00939 | 82 ft | 2 kts | 330° |
| 2026-05-05 04:29 | 14.52078 | 121.00945 | 82 ft | 0 kts | 317° |
| 2026-05-05 04:29 | 14.52074 | 121.00951 | 82 ft | 0 kts | 314° |
| 2026-05-05 04:31 | 14.52075 | 121.00949 | 82 ft | 0 kts | 314° |
| 2026-05-05 04:31 | 14.52081 | 121.00943 | 82 ft | 1 kts | 315° |
| 2026-05-05 04:31 | 14.52092 | 121.00932 | 82 ft | 2 kts | 316° |
| 2026-05-05 04:31 | 14.52108 | 121.00916 | 82 ft | 3 kts | 315° |
| 2026-05-05 04:32 | 14.52130 | 121.00893 | 82 ft | 4 kts | 315° |
| 2026-05-05 04:32 | 14.52157 | 121.00866 | 82 ft | 5 kts | 315° |
| 2026-05-05 04:32 | 14.52189 | 121.00832 | 82 ft | 6 kts | 314° |
| 2026-05-05 04:32 | 14.52225 | 121.00794 | 82 ft | 7 kts | 314° |
| 2026-05-05 04:33 | 14.52266 | 121.00752 | 82 ft | 8 kts | 315° |
| 2026-05-05 04:33 | 14.52313 | 121.00704 | 82 ft | 9 kts | 315° |
| 2026-05-05 04:33 | 14.52364 | 121.00652 | 82 ft | 10 kts | 315° |
| 2026-05-05 04:33 | 14.52418 | 121.00595 | 82 ft | 11 kts | 314° |
| 2026-05-05 04:34 | 14.52468 | 121.00543 | 82 ft | 8 kts | 315° |
| 2026-05-05 04:34 | 14.52493 | 121.00511 | 82 ft | 4 kts | 281° |
| 2026-05-05 04:34 | 14.52477 | 121.00477 | 82 ft | 6 kts | 226° |
| 2026-05-05 04:34 | 14.52445 | 121.00442 | 82 ft | 7 kts | 226° |
| 2026-05-05 04:35 | 14.52410 | 121.00406 | 82 ft | 5 kts | 224° |
| 2026-05-05 04:35 | 14.52375 | 121.00400 | 82 ft | 5 kts | 158° |
| 2026-05-05 04:35 | 14.52341 | 121.00429 | 82 ft | 6 kts | 135° |
| 2026-05-05 04:35 | 14.52305 | 121.00465 | 82 ft | 7 kts | 135° |
| 2026-05-05 04:36 | 14.52290 | 121.00481 | 82 ft | 0 kts | 135° |
| 2026-05-05 04:36 | 14.52268 | 121.00504 | 82 ft | 27 kts | 134° |
| 2026-05-05 04:36 | 14.51926 | 121.00857 | 82 ft | 109 kts | 135° |
| 2026-05-05 04:37 | 14.51217 | 121.01588 | 118 ft | 171 kts | 135° |
| 2026-05-05 04:37 | 14.50353 | 121.02445 | 841 ft | 172 kts | 135° |
| 2026-05-05 04:37 | 14.49523 | 121.03293 | 1700 ft | 171 kts | 131° |
| 2026-05-05 04:37 | 14.48706 | 121.04144 | 2285 ft | 170 kts | 131° |
| 2026-05-05 04:38 | 14.47899 | 121.05078 | 2584 ft | 184 kts | 127° |
| 2026-05-05 04:38 | 14.47050 | 121.06145 | 2889 ft | 200 kts | 126° |
| 2026-05-05 04:38 | 14.46136 | 121.07306 | 3193 ft | 217 kts | 126° |
| 2026-05-05 04:38 | 14.45127 | 121.08585 | 3446 ft | 239 kts | 127° |
| 2026-05-05 04:39 | 14.44046 | 121.09949 | 3832 ft | 256 kts | 127° |
| 2026-05-05 04:39 | 14.42892 | 121.11397 | 4450 ft | 263 kts | 127° |
| 2026-05-05 04:39 | 14.41736 | 121.12840 | 5194 ft | 265 kts | 127° |
| 2026-05-05 04:39 | 14.40554 | 121.14317 | 5941 ft | 267 kts | 127° |
| 2026-05-05 04:40 | 14.39384 | 121.15778 | 6681 ft | 269 kts | 127° |
| 2026-05-05 04:40 | 14.38195 | 121.17258 | 7405 ft | 271 kts | 127° |
| 2026-05-05 04:40 | 14.36984 | 121.18769 | 8112 ft | 274 kts | 128° |
| 2026-05-05 04:40 | 14.35761 | 121.20293 | 8783 ft | 277 kts | 128° |
| 2026-05-05 04:41 | 14.34528 | 121.21828 | 9443 ft | 279 kts | 128° |
| 2026-05-05 04:41 | 14.33296 | 121.23363 | 10050 ft | 283 kts | 128° |
| 2026-05-05 04:41 | 14.32027 | 121.24943 | 10637 ft | 287 kts | 128° |
| 2026-05-05 04:41 | 14.30760 | 121.26520 | 11186 ft | 291 kts | 128° |
| 2026-05-05 04:42 | 14.29437 | 121.28169 | 11531 ft | 304 kts | 128° |
| 2026-05-05 04:42 | 14.28056 | 121.29892 | 11788 ft | 319 kts | 128° |
| 2026-05-05 04:42 | 14.26623 | 121.31679 | 12053 ft | 333 kts | 128° |
| 2026-05-05 04:42 | 14.25117 | 121.33556 | 12287 ft | 346 kts | 128° |
| 2026-05-05 04:43 | 14.23549 | 121.35509 | 12552 ft | 359 kts | 128° |
| 2026-05-05 04:43 | 14.21930 | 121.37521 | 12807 ft | 370 kts | 128° |
| 2026-05-05 04:43 | 14.20238 | 121.39620 | 13024 ft | 382 kts | 128° |
| 2026-05-05 04:43 | 14.18521 | 121.41749 | 13228 ft | 393 kts | 128° |
| 2026-05-05 04:44 | 14.16746 | 121.43951 | 13479 ft | 401 kts | 128° |
| 2026-05-05 04:44 | 14.14976 | 121.46147 | 13863 ft | 405 kts | 128° |
| 2026-05-05 04:44 | 14.13156 | 121.48405 | 14315 ft | 406 kts | 128° |
| 2026-05-05 04:44 | 14.11359 | 121.50635 | 14717 ft | 409 kts | 128° |
| 2026-05-05 04:45 | 14.09522 | 121.52914 | 15102 ft | 412 kts | 128° |
| 2026-05-05 04:45 | 14.07702 | 121.55173 | 15470 ft | 414 kts | 128° |
| 2026-05-05 04:45 | 14.05860 | 121.57458 | 15850 ft | 416 kts | 128° |
| 2026-05-05 04:45 | 14.04010 | 121.59753 | 16211 ft | 419 kts | 128° |
| 2026-05-05 04:46 | 14.02136 | 121.62077 | 16549 ft | 421 kts | 128° |
| 2026-05-05 04:46 | 14.00257 | 121.64407 | 16888 ft | 424 kts | 128° |
| 2026-05-05 04:46 | 13.98359 | 121.66759 | 17212 ft | 426 kts | 129° |
| 2026-05-05 04:46 | 13.96452 | 121.69122 | 17529 ft | 428 kts | 129° |
| 2026-05-05 04:47 | 13.94564 | 121.71461 | 17821 ft | 431 kts | 129° |
| 2026-05-05 04:47 | 13.92646 | 121.73835 | 18132 ft | 432 kts | 129° |
| 2026-05-05 04:47 | 13.90710 | 121.76232 | 18432 ft | 435 kts | 129° |
| 2026-05-05 04:47 | 13.88767 | 121.78637 | 18716 ft | 437 kts | 129° |
| 2026-05-05 04:48 | 13.86820 | 121.81046 | 18986 ft | 439 kts | 129° |
| 2026-05-05 04:48 | 13.84857 | 121.83463 | 19268 ft | 441 kts | 129° |
| 2026-05-05 04:48 | 13.82891 | 121.85873 | 19540 ft | 443 kts | 129° |
| 2026-05-05 04:48 | 13.80901 | 121.88310 | 19793 ft | 445 kts | 129° |
| 2026-05-05 04:49 | 13.78890 | 121.90774 | 20068 ft | 447 kts | 129° |
| 2026-05-05 04:49 | 13.76897 | 121.93214 | 20314 ft | 448 kts | 129° |
| 2026-05-05 04:49 | 13.74900 | 121.95660 | 20564 ft | 450 kts | 129° |
| 2026-05-05 04:49 | 13.72882 | 121.98130 | 20814 ft | 452 kts | 129° |
| 2026-05-05 04:50 | 13.71538 | 121.99776 | 20972 ft | 453 kts | 130° |
| 2026-05-05 04:50 | 13.68816 | 122.03107 | 21287 ft | 455 kts | 129° |
| 2026-05-05 04:50 | 13.66790 | 122.05584 | 21522 ft | 456 kts | 130° |
| 2026-05-05 04:50 | 13.65410 | 122.07272 | 21672 ft | 457 kts | 130° |
| 2026-05-05 04:51 | 13.62674 | 122.10619 | 21936 ft | 460 kts | 130° |
| 2026-05-05 04:51 | 13.60616 | 122.13134 | 22144 ft | 461 kts | 130° |
| 2026-05-05 04:51 | 13.58546 | 122.15663 | 22364 ft | 462 kts | 130° |
| 2026-05-05 04:51 | 13.56476 | 122.18193 | 22566 ft | 464 kts | 130° |
| 2026-05-05 04:52 | 13.54391 | 122.20740 | 22745 ft | 466 kts | 130° |
| 2026-05-05 04:52 | 13.52302 | 122.23291 | 22954 ft | 467 kts | 130° |
| 2026-05-05 04:52 | 13.51624 | 122.24118 | 23024 ft | 467 kts | 130° |
| 2026-05-05 04:52 | 13.49527 | 122.26678 | 23231 ft | 468 kts | 130° |
| 2026-05-05 04:53 | 13.44497 | 122.32813 | 23690 ft | 471 kts | 130° |
| 2026-05-05 04:53 | 13.42396 | 122.35375 | 23882 ft | 472 kts | 130° |
| 2026-05-05 04:53 | 13.40282 | 122.37951 | 24140 ft | 471 kts | 130° |
| 2026-05-05 04:54 | 13.38172 | 122.40523 | 24439 ft | 470 kts | 130° |
| 2026-05-05 04:54 | 13.36069 | 122.43084 | 24711 ft | 469 kts | 130° |
| 2026-05-05 04:54 | 13.33945 | 122.45670 | 24968 ft | 469 kts | 130° |
| 2026-05-05 04:54 | 13.31852 | 122.48219 | 25208 ft | 469 kts | 130° |
| 2026-05-05 04:55 | 13.29758 | 122.50769 | 25467 ft | 469 kts | 130° |
| 2026-05-05 04:55 | 13.26942 | 122.54195 | 25831 ft | 468 kts | 130° |
| 2026-05-05 04:55 | 13.25545 | 122.55894 | 26030 ft | 467 kts | 130° |
| 2026-05-05 04:55 | 13.23460 | 122.58429 | 26313 ft | 466 kts | 130° |
| 2026-05-05 04:56 | 13.21366 | 122.60975 | 26566 ft | 466 kts | 130° |
| 2026-05-05 04:56 | 13.19276 | 122.63515 | 26827 ft | 466 kts | 130° |
| 2026-05-05 04:56 | 13.17186 | 122.66054 | 27119 ft | 465 kts | 130° |
| 2026-05-05 04:56 | 13.15114 | 122.68571 | 27408 ft | 464 kts | 130° |
| 2026-05-05 04:57 | 13.13028 | 122.71103 | 27714 ft | 463 kts | 130° |
| 2026-05-05 04:57 | 13.10974 | 122.73595 | 28006 ft | 462 kts | 130° |
| 2026-05-05 04:57 | 13.08881 | 122.76136 | 28296 ft | 461 kts | 130° |
| 2026-05-05 04:57 | 13.06811 | 122.78647 | 28587 ft | 461 kts | 130° |
| 2026-05-05 04:58 | 13.04755 | 122.81140 | 28890 ft | 460 kts | 130° |
| 2026-05-05 04:58 | 13.02671 | 122.83667 | 29181 ft | 460 kts | 130° |
| 2026-05-05 04:58 | 13.00618 | 122.86156 | 29472 ft | 460 kts | 130° |
| 2026-05-05 04:58 | 12.98536 | 122.88679 | 29772 ft | 460 kts | 130° |
| 2026-05-05 04:59 | 12.96490 | 122.91157 | 30075 ft | 460 kts | 131° |
| 2026-05-05 04:59 | 12.94423 | 122.93661 | 30393 ft | 459 kts | 131° |
| 2026-05-05 04:59 | 12.92349 | 122.96173 | 30709 ft | 459 kts | 131° |
| 2026-05-05 04:59 | 12.90304 | 122.98647 | 31009 ft | 459 kts | 131° |
| 2026-05-05 05:00 | 12.88227 | 123.01161 | 31301 ft | 459 kts | 131° |
| 2026-05-05 05:00 | 12.86157 | 123.03664 | 31596 ft | 459 kts | 131° |
| 2026-05-05 05:00 | 12.84090 | 123.06165 | 31906 ft | 459 kts | 131° |
| 2026-05-05 05:00 | 12.82021 | 123.08668 | 32222 ft | 459 kts | 131° |
| 2026-05-05 05:01 | 12.79970 | 123.11146 | 32530 ft | 459 kts | 131° |
| 2026-05-05 05:01 | 12.77918 | 123.13624 | 32858 ft | 459 kts | 131° |
| 2026-05-05 05:01 | 12.75829 | 123.16147 | 33223 ft | 459 kts | 131° |
| 2026-05-05 05:01 | 12.73797 | 123.18601 | 33616 ft | 457 kts | 131° |
| 2026-05-05 05:02 | 12.71735 | 123.21092 | 34032 ft | 456 kts | 131° |
| 2026-05-05 05:02 | 12.69679 | 123.23573 | 34437 ft | 454 kts | 131° |
| 2026-05-05 05:02 | 12.67642 | 123.26032 | 34827 ft | 453 kts | 131° |
| 2026-05-05 05:02 | 12.65611 | 123.28484 | 35196 ft | 452 kts | 131° |
| 2026-05-05 05:03 | 12.63572 | 123.30943 | 35504 ft | 452 kts | 131° |
| 2026-05-05 05:03 | 12.61537 | 123.33396 | 35740 ft | 453 kts | 131° |
| 2026-05-05 05:03 | 12.59512 | 123.35835 | 35945 ft | 454 kts | 131° |
| 2026-05-05 05:03 | 12.57456 | 123.38313 | 36155 ft | 456 kts | 131° |
| 2026-05-05 05:04 | 12.55392 | 123.40801 | 36366 ft | 457 kts | 131° |
| 2026-05-05 05:04 | 12.53338 | 123.43275 | 36569 ft | 458 kts | 131° |
| 2026-05-05 05:04 | 12.51290 | 123.45742 | 36757 ft | 459 kts | 131° |
| 2026-05-05 05:04 | 12.49205 | 123.48253 | 36917 ft | 460 kts | 131° |
| 2026-05-05 05:05 | 12.47122 | 123.50762 | 36921 ft | 465 kts | 131° |
| 2026-05-05 05:05 | 12.42911 | 123.55828 | 36926 ft | 472 kts | 131° |
| 2026-05-05 05:06 | 12.38650 | 123.60957 | 36926 ft | 474 kts | 131° |
| 2026-05-05 05:06 | 12.34397 | 123.66120 | 36924 ft | 474 kts | 130° |
| 2026-05-05 05:07 | 12.30227 | 123.71283 | 36926 ft | 473 kts | 130° |
| 2026-05-05 05:07 | 12.26022 | 123.76483 | 36926 ft | 473 kts | 130° |
| 2026-05-05 05:08 | 12.21839 | 123.81647 | 36926 ft | 472 kts | 130° |
| 2026-05-05 05:08 | 12.17642 | 123.86825 | 36926 ft | 473 kts | 130° |
| 2026-05-05 05:09 | 12.13448 | 123.91995 | 36924 ft | 472 kts | 130° |
| 2026-05-05 05:09 | 12.09258 | 123.97158 | 36922 ft | 472 kts | 130° |
| 2026-05-05 05:10 | 12.05065 | 124.02321 | 36920 ft | 472 kts | 130° |
| 2026-05-05 05:10 | 12.00876 | 124.07477 | 36921 ft | 472 kts | 130° |
| 2026-05-05 05:11 | 11.96678 | 124.12642 | 36919 ft | 472 kts | 130° |
| 2026-05-05 05:11 | 11.92508 | 124.17770 | 36917 ft | 472 kts | 130° |
| 2026-05-05 05:12 | 11.88303 | 124.22938 | 36917 ft | 471 kts | 130° |
| 2026-05-05 05:12 | 11.84101 | 124.28097 | 36916 ft | 471 kts | 130° |
| 2026-05-05 05:13 | 11.82711 | 124.29803 | 36916 ft | 471 kts | 130° |